createdAt,value
2023-05-17T00:00:10.360Z,3.08
2023-05-17T00:02:37.324Z,2.97
2023-05-17T00:05:04.691Z,2.70
2023-05-17T00:07:31.167Z,3.17
2023-05-17T00:09:57.761Z,3.55
2023-05-17T00:12:24.277Z,3.17
2023-05-17T00:14:50.938Z,3.50
2023-05-17T00:17:17.481Z,3.67
2023-05-17T00:19:43.947Z,3.45
2023-05-17T00:22:10.380Z,3.35
2023-05-17T00:24:36.819Z,3.20
2023-05-17T00:27:03.351Z,2.90
2023-05-17T00:29:29.785Z,3.65
2023-05-17T00:31:56.231Z,3.80
2023-05-17T00:34:22.695Z,3.65
2023-05-17T00:36:49.654Z,3.22
2023-05-17T00:39:16.165Z,3.80
2023-05-17T00:41:43.368Z,4.03
2023-05-17T00:44:09.815Z,3.92
2023-05-17T00:46:36.297Z,5.00
2023-05-17T00:49:03.517Z,4.55
2023-05-17T00:51:31.228Z,5.03
2023-05-17T00:53:57.882Z,4.00
2023-05-17T00:56:25.234Z,4.38
2023-05-17T00:58:53.131Z,3.90
2023-05-17T01:01:20.229Z,3.88
2023-05-17T01:03:47.333Z,4.00
2023-05-17T01:06:14.552Z,5.22
2023-05-17T01:08:41.292Z,4.35
2023-05-17T01:11:45.365Z,3.95
2023-05-17T01:14:27.891Z,3.58
2023-05-17T01:16:59.457Z,3.90
2023-05-17T01:19:57.862Z,3.85
2023-05-17T01:22:33.701Z,4.25
2023-05-17T01:25:28.498Z,4.43
2023-05-17T01:28:01.048Z,3.90
2023-05-17T01:30:29.199Z,5.00
2023-05-17T01:33:00.590Z,4.47
2023-05-17T01:35:27.437Z,3.53
2023-05-17T01:37:54.362Z,4.00
2023-05-17T01:40:21.756Z,4.68
2023-05-17T01:42:57.776Z,4.97
2023-05-17T01:45:51.456Z,4.68
2023-05-17T01:48:28.434Z,5.05
2023-05-17T01:50:58.134Z,5.28
2023-05-17T01:53:38.053Z,4.47
2023-05-17T01:56:16.237Z,4.05
2023-05-17T01:58:47.472Z,3.88
2023-05-17T02:01:16.495Z,4.20
2023-05-17T02:03:43.056Z,5.05
2023-05-17T02:06:09.584Z,4.93
2023-05-17T02:08:36.395Z,5.22
2023-05-17T02:11:02.968Z,4.80
2023-05-17T02:13:30.745Z,4.38
2023-05-17T02:16:00.950Z,5.45
2023-05-17T02:18:28.019Z,5.27
2023-05-17T02:20:54.792Z,5.05
2023-05-17T02:23:21.530Z,4.82
2023-05-17T02:25:48.004Z,4.25
2023-05-17T02:28:14.439Z,5.18
2023-05-17T02:30:40.972Z,4.70
2023-05-17T02:33:08.164Z,4.70
2023-05-17T02:35:34.678Z,5.18
2023-05-17T02:38:01.143Z,5.15
2023-05-17T02:40:27.632Z,6.15
2023-05-17T02:42:54.080Z,5.70
2023-05-17T02:45:20.536Z,5.55
2023-05-17T02:47:47.020Z,5.22
2023-05-17T02:50:13.530Z,5.97
2023-05-17T02:52:40.056Z,5.55
2023-05-17T02:55:07.246Z,5.65
2023-05-17T02:57:33.727Z,5.65
2023-05-17T03:00:00.299Z,6.47
2023-05-17T03:02:27.623Z,5.10
2023-05-17T03:04:54.354Z,6.13
2023-05-17T03:07:20.894Z,4.97
2023-05-17T03:09:47.454Z,5.80
2023-05-17T03:12:13.934Z,6.03
2023-05-17T03:14:41.921Z,5.65
2023-05-17T03:17:09.361Z,5.57
2023-05-17T03:19:35.845Z,6.22
2023-05-17T03:22:03.327Z,5.35
2023-05-17T03:24:32.352Z,6.05
2023-05-17T03:26:59.850Z,5.95
2023-05-17T03:29:26.582Z,6.32
2023-05-17T03:31:53.112Z,5.72
2023-05-17T03:34:19.560Z,6.38
2023-05-17T03:36:46.020Z,5.78
2023-05-17T03:39:12.658Z,5.78
2023-05-17T03:41:42.065Z,5.15
2023-05-17T03:44:08.804Z,6.20
2023-05-17T03:46:36.109Z,5.47
2023-05-17T03:49:03.959Z,6.50
2023-05-17T03:51:32.221Z,5.28
2023-05-17T03:54:01.550Z,6.53
2023-05-17T03:56:29.762Z,5.82
2023-05-17T03:58:56.270Z,6.88
2023-05-17T04:01:23.095Z,5.95
2023-05-17T04:03:49.581Z,5.22
2023-05-17T04:06:16.080Z,5.50
2023-05-17T04:08:42.858Z,6.63
2023-05-17T04:11:15.324Z,7.15
2023-05-17T04:13:43.109Z,5.97
2023-05-17T04:16:10.619Z,5.72
2023-05-17T04:18:41.147Z,5.95
2023-05-17T04:21:08.804Z,5.88
2023-05-17T04:23:36.142Z,6.35
2023-05-17T04:26:04.834Z,6.50
2023-05-17T04:28:36.941Z,6.57
2023-05-17T04:31:08.137Z,6.35
2023-05-17T04:33:35.547Z,6.25
2023-05-17T04:36:02.555Z,6.72
2023-05-17T04:38:30.124Z,6.07
2023-05-17T04:41:04.621Z,6.85
2023-05-17T04:43:34.445Z,7.00
2023-05-17T04:46:03.123Z,7.45
2023-05-17T04:48:32.426Z,6.90
2023-05-17T04:51:04.305Z,7.05
2023-05-17T04:53:31.568Z,6.90
2023-05-17T04:55:59.078Z,6.90
2023-05-17T04:58:26.644Z,7.45
2023-05-17T05:00:57.533Z,7.03
2023-05-17T05:03:24.395Z,6.00
2023-05-17T05:05:51.477Z,6.68
2023-05-17T05:08:18.104Z,5.22
2023-05-17T05:10:46.345Z,6.38
2023-05-17T05:13:14.783Z,6.35
2023-05-17T05:15:41.909Z,6.13
2023-05-17T05:18:08.526Z,6.50
2023-05-17T05:20:35.149Z,6.50
2023-05-17T05:23:05.867Z,6.68
2023-05-17T05:25:33.219Z,6.28
2023-05-17T05:27:59.836Z,5.20
2023-05-17T05:30:27.514Z,6.45
2023-05-17T05:32:55.448Z,6.38
2023-05-17T05:35:29.151Z,6.35
2023-05-17T05:37:57.794Z,6.82
2023-05-17T05:40:24.771Z,6.30
2023-05-17T05:42:52.327Z,5.57
2023-05-17T05:45:20.165Z,6.88
2023-05-17T05:47:47.989Z,5.50
2023-05-17T05:50:15.083Z,5.10
2023-05-17T05:52:43.570Z,6.60
2023-05-17T05:55:10.217Z,5.28
2023-05-17T05:57:36.754Z,4.28
2023-05-17T06:00:04.924Z,5.03
2023-05-17T06:02:39.317Z,4.95
2023-05-17T06:05:07.788Z,5.07
2023-05-17T06:07:34.245Z,5.88
2023-05-17T06:10:00.701Z,5.25
2023-05-17T06:12:27.237Z,4.70
2023-05-17T06:14:53.719Z,5.80
2023-05-17T06:17:21.351Z,4.60
2023-05-17T06:19:49.271Z,5.15
2023-05-17T06:22:16.163Z,5.22
2023-05-17T06:24:42.664Z,6.22
2023-05-17T06:27:09.116Z,4.72
2023-05-17T06:29:35.577Z,5.20
2023-05-17T06:32:02.028Z,4.57
2023-05-17T06:34:28.501Z,5.68
2023-05-17T06:36:55.120Z,3.72
2023-05-17T06:39:21.568Z,4.75
2023-05-17T06:41:48.043Z,3.45
2023-05-17T06:44:17.039Z,4.47
2023-05-17T06:46:43.506Z,4.45
2023-05-17T06:49:10.093Z,3.53
2023-05-17T06:51:36.600Z,4.90
2023-05-17T06:54:03.077Z,3.20
2023-05-17T06:56:29.566Z,4.32
2023-05-17T06:58:56.011Z,3.80
2023-05-17T07:01:22.504Z,3.92
2023-05-17T07:03:49.329Z,4.57
2023-05-17T07:06:19.007Z,3.80
2023-05-17T07:08:46.153Z,4.25
2023-05-17T07:11:12.638Z,4.25
2023-05-17T07:13:39.242Z,3.58
2023-05-17T07:16:07.957Z,4.20
2023-05-17T07:18:36.704Z,3.83
2023-05-17T07:21:03.755Z,3.13
2023-05-17T07:23:30.227Z,3.63
2023-05-17T07:25:56.701Z,3.97
2023-05-17T07:28:23.146Z,3.35
2023-05-17T07:30:49.592Z,4.03
2023-05-17T07:33:16.388Z,3.58
2023-05-17T07:35:42.864Z,3.53
2023-05-17T07:38:10.752Z,3.83
2023-05-17T07:40:37.171Z,2.92
2023-05-17T07:43:03.628Z,3.72
2023-05-17T07:45:30.198Z,3.72
2023-05-17T07:47:56.981Z,3.67
2023-05-17T07:50:23.639Z,3.60
2023-05-17T07:52:50.109Z,3.17
2023-05-17T07:55:25.995Z,3.50
2023-05-17T07:57:52.578Z,3.03
2023-05-17T08:00:19.593Z,3.22
2023-05-17T08:02:46.545Z,3.75
2023-05-17T08:05:13.121Z,4.32
2023-05-17T08:07:39.593Z,3.60
2023-05-17T08:10:06.618Z,3.33
2023-05-17T08:12:33.153Z,4.20
2023-05-17T08:14:59.654Z,4.13
2023-05-17T08:17:26.204Z,3.30
2023-05-17T08:19:52.768Z,3.50
2023-05-17T08:22:19.359Z,4.20
2023-05-17T08:24:46.529Z,3.28
2023-05-17T08:27:12.984Z,3.38
2023-05-17T08:29:39.928Z,3.17
2023-05-17T08:32:08.061Z,3.38
2023-05-17T08:34:34.682Z,3.13
2023-05-17T08:37:01.270Z,3.53
2023-05-17T08:39:27.830Z,3.13
2023-05-17T08:41:59.340Z,2.92
2023-05-17T08:44:28.216Z,3.45
2023-05-17T08:46:56.539Z,3.20
2023-05-17T08:49:25.831Z,3.08
2023-05-17T08:51:54.400Z,3.08
2023-05-17T08:54:21.076Z,3.03
2023-05-17T08:56:52.143Z,3.10
2023-05-17T08:59:21.590Z,3.22
2023-05-17T09:01:49.739Z,3.30
2023-05-17T09:04:16.634Z,3.25
2023-05-17T09:06:44.669Z,2.85
2023-05-17T09:09:11.622Z,2.90
2023-05-17T09:11:38.717Z,3.22
2023-05-17T09:14:06.976Z,2.97
2023-05-17T09:16:37.661Z,3.50
2023-05-17T09:19:06.063Z,2.53
2023-05-17T09:21:33.979Z,2.97
2023-05-17T09:24:08.030Z,3.65
2023-05-17T09:26:43.312Z,3.00
2023-05-17T09:29:10.575Z,3.03
2023-05-17T09:31:37.228Z,3.35
2023-05-17T09:34:03.785Z,4.00
2023-05-17T09:36:30.452Z,3.45
2023-05-17T09:39:02.135Z,3.28
2023-05-17T09:41:32.025Z,3.08
2023-05-17T09:44:02.464Z,3.25
2023-05-17T09:46:49.181Z,3.63
2023-05-17T09:49:16.993Z,3.10
2023-05-17T09:51:45.068Z,2.88
2023-05-17T09:54:12.149Z,2.85
2023-05-17T09:56:39.367Z,3.10
2023-05-17T09:59:12.865Z,3.38
2023-05-17T10:01:41.605Z,3.60
2023-05-17T10:04:12.248Z,3.15
2023-05-17T10:06:46.508Z,2.92
2023-05-17T10:09:15.763Z,3.05
2023-05-17T10:11:46.563Z,3.00
2023-05-17T10:14:29.037Z,2.53
2023-05-17T10:16:56.301Z,3.13
2023-05-17T10:19:24.558Z,2.70
2023-05-17T10:21:52.346Z,2.70
2023-05-17T10:24:21.584Z,3.55
2023-05-17T10:26:50.455Z,3.40
2023-05-17T10:29:17.091Z,2.03
2023-05-17T10:31:43.584Z,2.88
2023-05-17T10:34:11.624Z,3.03
2023-05-17T10:36:39.046Z,3.05
2023-05-17T10:39:09.415Z,2.22
2023-05-17T10:41:38.320Z,2.80
2023-05-17T10:44:07.992Z,3.50
2023-05-17T10:46:34.623Z,3.40
2023-05-17T10:49:01.481Z,2.33
2023-05-17T10:51:34.490Z,2.97
2023-05-17T10:54:07.486Z,2.97
2023-05-17T10:56:34.710Z,2.92
2023-05-17T10:59:21.888Z,2.97
2023-05-17T11:02:03.455Z,2.80
2023-05-17T11:04:38.329Z,2.67
2023-05-17T11:07:17.322Z,2.67
2023-05-17T11:09:45.048Z,4.07
2023-05-17T11:12:13.374Z,2.97
2023-05-17T11:14:46.378Z,2.92
2023-05-17T11:17:21.154Z,2.55
2023-05-17T11:19:59.848Z,2.90
2023-05-17T11:22:27.602Z,2.88
2023-05-17T11:24:57.406Z,3.20
2023-05-17T11:27:30.825Z,2.97
2023-05-17T11:29:58.775Z,2.95
2023-05-17T11:32:32.528Z,3.28
2023-05-17T11:35:02.344Z,2.88
2023-05-17T11:37:29.932Z,3.03
2023-05-17T11:40:04.605Z,3.47
2023-05-17T11:42:31.254Z,3.15
2023-05-17T11:45:00.371Z,3.58
2023-05-17T11:47:27.208Z,3.65
2023-05-17T11:50:01.219Z,3.17
2023-05-17T11:52:29.410Z,3.10
2023-05-17T11:54:58.433Z,2.45
2023-05-17T11:57:31.862Z,2.72
2023-05-17T12:00:00.386Z,2.55
2023-05-17T12:02:31.164Z,2.97
2023-05-17T12:07:25.755Z,3.20
2023-05-17T12:09:52.758Z,2.95
2023-05-17T12:12:21.963Z,2.95
2023-05-17T12:14:48.712Z,2.70
2023-05-17T12:17:29.901Z,2.85
2023-05-17T12:20:06.978Z,3.95
2023-05-17T12:22:33.676Z,3.15
2023-05-17T12:25:00.304Z,2.65
2023-05-17T12:27:27.307Z,2.67
2023-05-17T12:29:54.294Z,3.03
2023-05-17T12:32:21.352Z,2.95
2023-05-17T12:34:49.482Z,2.42
2023-05-17T12:37:16.394Z,2.45
2023-05-17T12:39:43.527Z,3.05
2023-05-17T12:42:10.438Z,2.35
2023-05-17T12:44:37.055Z,2.88
2023-05-17T12:47:03.705Z,3.20
2023-05-17T12:49:30.360Z,2.75
2023-05-17T12:52:02.944Z,2.92
2023-05-17T12:54:29.878Z,2.40
2023-05-17T12:56:57.198Z,2.90
2023-05-17T12:59:25.889Z,3.55
2023-05-17T13:01:57.505Z,3.42
2023-05-17T13:04:32.811Z,3.10
2023-05-17T13:07:01.680Z,3.58
2023-05-17T13:09:30.979Z,2.80
2023-05-17T13:11:59.899Z,2.58
2023-05-17T13:14:47.448Z,2.67
2023-05-17T13:17:36.494Z,2.60
2023-05-17T13:20:04.038Z,2.80
2023-05-17T13:22:31.891Z,2.67
2023-05-17T13:24:58.349Z,2.22
2023-05-17T13:27:24.809Z,3.20
2023-05-17T13:29:51.298Z,3.25
2023-05-17T13:32:17.794Z,2.97
2023-05-17T13:34:44.260Z,2.83
2023-05-17T13:37:12.349Z,2.88
2023-05-17T13:39:41.017Z,2.65
2023-05-17T13:42:07.869Z,3.03
2023-05-17T13:44:34.353Z,2.65
2023-05-17T13:47:00.915Z,2.67
2023-05-17T13:49:28.441Z,2.72
2023-05-17T13:51:54.922Z,3.00
2023-05-17T13:54:23.994Z,2.92
2023-05-17T13:56:50.460Z,2.40
2023-05-17T13:59:16.952Z,3.40
2023-05-17T14:01:43.832Z,3.00
2023-05-17T14:04:10.378Z,2.67
2023-05-17T14:06:36.908Z,3.05
2023-05-17T14:09:04.041Z,3.40
2023-05-17T14:11:30.486Z,2.70
2023-05-17T14:13:56.954Z,3.22
2023-05-17T14:16:23.413Z,3.10
2023-05-17T14:18:50.062Z,3.10
2023-05-17T14:21:16.731Z,3.20
2023-05-17T14:23:43.200Z,3.67
2023-05-17T14:26:09.909Z,2.33
2023-05-17T14:28:38.167Z,3.28
2023-05-17T14:31:09.258Z,2.67
2023-05-17T14:36:03.609Z,3.17
2023-05-17T14:38:30.245Z,2.80
2023-05-17T14:40:58.014Z,2.72
2023-05-17T14:43:24.827Z,2.90
2023-05-17T14:45:51.275Z,2.75
2023-05-17T14:48:17.823Z,3.30
2023-05-17T14:50:44.381Z,2.78
2023-05-17T14:53:10.944Z,2.55
2023-05-17T14:55:37.919Z,3.03
2023-05-17T14:58:04.403Z,3.35
2023-05-17T15:00:30.865Z,3.00
2023-05-17T15:02:57.984Z,2.85
2023-05-17T15:05:25.054Z,2.97
2023-05-17T15:07:52.846Z,2.75
2023-05-17T15:10:19.492Z,2.65
2023-05-17T15:12:45.976Z,2.67
2023-05-17T15:15:12.520Z,2.20
2023-05-17T15:17:38.993Z,2.80
2023-05-17T15:20:07.410Z,2.85
2023-05-17T15:22:34.026Z,3.33
2023-05-17T15:25:00.558Z,2.70
2023-05-17T15:27:27.017Z,3.50
2023-05-17T15:29:53.459Z,2.83
2023-05-17T15:32:19.902Z,2.65
2023-05-17T15:34:46.736Z,2.85
2023-05-17T15:37:13.233Z,3.08
2023-05-17T15:39:39.698Z,2.75
2023-05-17T15:42:06.165Z,2.33
2023-05-17T15:44:32.686Z,2.92
2023-05-17T15:47:01.446Z,2.63
2023-05-17T15:49:29.546Z,3.35
2023-05-17T15:51:56.295Z,2.67
2023-05-17T15:54:22.721Z,4.18
2023-05-17T15:56:49.172Z,3.10
2023-05-17T15:59:16.040Z,2.63
2023-05-17T16:01:46.003Z,3.28
2023-05-17T16:04:13.493Z,2.70
2023-05-17T16:06:40.234Z,3.40
2023-05-17T16:09:06.827Z,2.53
2023-05-17T16:11:33.423Z,2.88
2023-05-17T16:13:59.893Z,2.30
2023-05-17T16:16:26.345Z,2.85
2023-05-17T16:18:52.887Z,3.20
2023-05-17T16:21:19.987Z,2.90
2023-05-17T16:23:46.571Z,2.55
2023-05-17T16:26:13.221Z,2.80
2023-05-17T16:28:39.713Z,2.70
2023-05-17T16:31:06.527Z,2.35
2023-05-17T16:33:33.044Z,3.40
2023-05-17T16:35:59.534Z,2.85
2023-05-17T16:38:26.258Z,2.53
2023-05-17T16:40:52.724Z,2.40
2023-05-17T16:43:19.268Z,2.38
2023-05-17T16:45:46.340Z,2.30
2023-05-17T16:48:14.158Z,2.63
2023-05-17T16:50:41.656Z,2.90
2023-05-17T16:53:08.178Z,2.80
2023-05-17T16:55:36.067Z,3.08
2023-05-17T16:58:02.573Z,3.00
2023-05-17T17:00:29.942Z,2.78
2023-05-17T17:02:58.262Z,2.70
2023-05-17T17:05:24.918Z,2.80
2023-05-17T17:07:51.497Z,3.03
2023-05-17T17:10:18.060Z,2.65
2023-05-17T17:12:44.535Z,3.08
2023-05-17T17:15:11.384Z,2.30
2023-05-17T17:17:37.881Z,2.83
2023-05-17T17:20:05.703Z,2.08
2023-05-17T17:22:32.326Z,2.78
2023-05-17T17:24:58.786Z,2.72
2023-05-17T17:27:25.229Z,2.90
2023-05-17T17:29:51.686Z,2.20
2023-05-17T17:32:18.198Z,2.65
2023-05-17T17:34:45.767Z,2.70
2023-05-17T17:37:12.227Z,2.88
2023-05-17T17:39:38.690Z,2.92
2023-05-17T17:42:05.366Z,2.67
2023-05-17T17:44:31.823Z,3.08
2023-05-17T17:46:58.356Z,2.60
2023-05-17T17:49:24.876Z,2.55
2023-05-17T17:51:51.633Z,2.88
2023-05-17T17:54:18.093Z,2.35
2023-05-17T17:56:45.482Z,2.70
2023-05-17T17:59:12.412Z,2.67
2023-05-17T18:01:39.288Z,2.60
2023-05-17T18:04:06.054Z,2.95
2023-05-17T18:06:32.545Z,2.25
2023-05-17T18:08:59.475Z,2.70
2023-05-17T18:11:26.186Z,2.70
2023-05-17T18:13:52.635Z,2.75
2023-05-17T18:16:19.136Z,2.75
2023-05-17T18:18:46.853Z,2.70
2023-05-17T18:21:13.313Z,2.30
2023-05-17T18:23:39.815Z,2.45
2023-05-17T18:26:06.737Z,3.20
2023-05-17T18:28:41.800Z,2.80
2023-05-17T18:31:09.502Z,4.75
2023-05-17T18:33:36.008Z,4.35
2023-05-17T18:36:02.532Z,3.30
2023-05-17T18:38:29.019Z,3.20
2023-05-17T18:40:55.848Z,2.63
2023-05-17T18:43:22.309Z,2.30
2023-05-17T18:45:48.769Z,2.53
2023-05-17T18:48:15.316Z,2.60
2023-05-17T18:50:41.831Z,2.35
2023-05-17T18:53:08.305Z,2.35
2023-05-17T18:55:34.893Z,2.40
2023-05-17T18:58:01.414Z,2.70
2023-05-17T19:00:28.771Z,2.70
2023-05-17T19:02:55.501Z,3.45
2023-05-17T19:05:22.100Z,1.98
2023-05-17T19:07:48.575Z,2.60
2023-05-17T19:10:15.016Z,2.70
2023-05-17T19:12:44.719Z,3.17
2023-05-17T19:15:12.006Z,2.90
2023-05-17T19:17:38.567Z,2.80
2023-05-17T19:20:05.604Z,2.38
2023-05-17T19:22:32.124Z,2.92
2023-05-17T19:24:58.562Z,2.25
2023-05-17T19:27:25.049Z,2.80
2023-05-17T19:29:51.682Z,2.20
2023-05-17T19:32:19.829Z,3.08
2023-05-17T19:34:46.395Z,2.20
2023-05-17T19:37:12.918Z,2.17
2023-05-17T19:39:39.416Z,3.03
2023-05-17T19:42:06.288Z,2.67
2023-05-17T19:44:32.796Z,4.00
2023-05-17T19:46:59.265Z,3.65
2023-05-17T19:49:26.007Z,5.05
2023-05-17T19:51:54.029Z,3.05
2023-05-17T19:54:21.762Z,2.90
2023-05-17T19:56:48.204Z,2.92
2023-05-17T19:59:14.698Z,3.33
2023-05-17T20:01:41.160Z,2.80
2023-05-17T20:04:07.886Z,3.15
2023-05-17T20:06:34.491Z,2.60
2023-05-17T20:09:00.957Z,2.95
2023-05-17T20:11:27.506Z,3.17
2023-05-17T20:13:53.965Z,3.20
2023-05-17T20:16:20.543Z,2.35
2023-05-17T20:18:47.532Z,2.03
2023-05-17T20:21:19.435Z,2.90
2023-05-17T20:23:46.538Z,3.30
2023-05-17T20:26:17.081Z,2.42
2023-05-17T20:28:44.656Z,2.47
2023-05-17T20:31:11.249Z,3.17
2023-05-17T20:33:37.708Z,2.78
2023-05-17T20:36:04.262Z,3.05
2023-05-17T20:38:30.756Z,2.67
2023-05-17T20:40:58.277Z,3.20
2023-05-17T20:43:28.757Z,2.72
2023-05-17T20:45:55.448Z,2.78
2023-05-17T20:48:21.939Z,2.90
2023-05-17T20:50:49.005Z,3.47
2023-05-17T20:53:15.631Z,2.72
2023-05-17T20:55:44.387Z,2.55
2023-05-17T20:58:11.285Z,2.60
2023-05-17T21:00:38.308Z,2.50
2023-05-17T21:03:05.018Z,2.25
2023-05-17T21:05:35.992Z,2.15
2023-05-17T21:08:02.845Z,2.92
2023-05-17T21:10:29.589Z,2.75
2023-05-17T21:12:56.188Z,2.40
2023-05-17T21:15:22.811Z,2.25
2023-05-17T21:17:49.386Z,3.17
2023-05-17T21:20:16.134Z,2.35
2023-05-17T21:22:42.641Z,2.65
2023-05-17T21:25:09.549Z,2.95
2023-05-17T21:27:36.001Z,3.40
2023-05-17T21:30:02.472Z,3.00
2023-05-17T21:32:28.982Z,3.00
2023-05-17T21:34:55.601Z,3.25
2023-05-17T21:37:22.046Z,3.10
2023-05-17T21:39:48.501Z,2.90
2023-05-17T21:42:14.998Z,2.92
2023-05-17T21:44:41.471Z,3.30
2023-05-17T21:47:08.133Z,3.08
2023-05-17T21:49:34.727Z,3.67
2023-05-17T21:52:01.285Z,2.95
2023-05-17T21:54:27.773Z,2.67
2023-05-17T21:56:54.245Z,2.72
2023-05-17T21:59:20.712Z,3.10
2023-05-17T22:01:47.323Z,3.10
2023-05-17T22:04:13.864Z,3.03
2023-05-17T22:06:40.370Z,2.47
2023-05-17T22:09:07.289Z,3.03
2023-05-17T22:11:38.133Z,2.88
2023-05-17T22:14:08.072Z,2.35
2023-05-17T22:16:35.864Z,3.33
2023-05-17T22:19:02.422Z,2.22
2023-05-17T22:21:29.607Z,2.90
2023-05-17T22:23:56.592Z,3.08
2023-05-17T22:26:23.189Z,3.58
2023-05-17T22:28:51.989Z,3.22
2023-05-17T22:31:19.742Z,3.67
2023-05-17T22:33:46.375Z,2.97
2023-05-17T22:36:13.952Z,3.20
2023-05-17T22:38:42.625Z,3.05
2023-05-17T22:41:10.031Z,3.63
2023-05-17T22:43:36.629Z,3.15
2023-05-17T22:46:03.229Z,3.20
2023-05-17T22:48:30.462Z,3.95
2023-05-17T22:50:58.812Z,3.38
2023-05-17T22:53:25.547Z,3.47
2023-05-17T22:55:52.039Z,4.10
2023-05-17T22:58:18.529Z,3.22
2023-05-17T23:00:45.050Z,3.28
2023-05-17T23:03:11.987Z,2.90
2023-05-17T23:05:38.464Z,3.28
2023-05-17T23:08:07.856Z,3.55
2023-05-17T23:10:34.364Z,3.00
2023-05-17T23:13:00.831Z,3.88
2023-05-17T23:15:28.480Z,3.63
2023-05-17T23:17:55.036Z,4.43
2023-05-17T23:20:23.500Z,3.30
2023-05-17T23:22:51.757Z,2.87
2023-05-17T23:25:18.204Z,3.20
2023-05-17T23:27:44.659Z,3.10
2023-05-17T23:30:11.452Z,3.70
2023-05-17T23:32:37.972Z,3.28
2023-05-17T23:35:04.970Z,4.00
2023-05-17T23:37:35.356Z,3.35
2023-05-17T23:40:02.477Z,2.93
2023-05-17T23:42:31.948Z,3.47
2023-05-17T23:44:59.089Z,3.70
2023-05-17T23:47:25.691Z,3.38
2023-05-17T23:49:52.731Z,3.72
2023-05-17T23:52:19.229Z,3.63
2023-05-17T23:54:46.688Z,3.00
2023-05-17T23:57:13.616Z,3.45
2023-05-17T23:59:40.066Z,3.40
